createdAt,value
2022-12-31T00:01:27.775Z,86.13
2022-12-31T00:06:37.528Z,85.48
2022-12-31T00:11:38.471Z,85.27
2022-12-31T00:16:41.751Z,85.24
2022-12-31T00:21:42.483Z,84.94
2022-12-31T00:26:42.183Z,85.34
2022-12-31T00:31:42.506Z,85.62
2022-12-31T00:36:46.272Z,86.27
2022-12-31T00:41:45.600Z,85.84
2022-12-31T00:46:46.009Z,86.12
2022-12-31T00:51:46.890Z,85.94
2022-12-31T00:56:46.813Z,86.02
2022-12-31T01:01:48.314Z,85.59
2022-12-31T01:06:48.801Z,86.02
2022-12-31T01:11:51.400Z,86.45
2022-12-31T01:16:53.580Z,86.51
2022-12-31T01:21:55.910Z,86.55
2022-12-31T01:26:58.074Z,86.73
2022-12-31T01:31:59.085Z,87.46
2022-12-31T01:36:58.723Z,87.32
2022-12-31T01:41:57.840Z,87.45
2022-12-31T01:47:02.147Z,87.77
2022-12-31T01:52:08.244Z,87.41
2022-12-31T01:57:11.423Z,87.09
2022-12-31T02:02:11.325Z,87.08
2022-12-31T02:07:14.067Z,87.33
2022-12-31T02:12:14.308Z,87.10
2022-12-31T02:17:29.192Z,86.72
2022-12-31T02:23:03.253Z,87.04
2022-12-31T02:28:18.090Z,86.99
2022-12-31T02:33:29.941Z,86.81
2022-12-31T02:38:33.947Z,86.75
2022-12-31T02:43:35.240Z,86.76
2022-12-31T02:49:02.460Z,86.93
2022-12-31T02:54:24.599Z,86.99
2022-12-31T02:59:49.534Z,86.97
2022-12-31T03:04:54.980Z,87.22
2022-12-31T03:09:54.601Z,87.21
2022-12-31T03:14:54.307Z,87.28
2022-12-31T03:20:11.345Z,87.65
2022-12-31T03:25:33.485Z,87.65
2022-12-31T03:30:34.563Z,87.73
2022-12-31T03:35:36.295Z,87.83
2022-12-31T03:40:41.317Z,87.87
2022-12-31T03:45:40.646Z,87.84
2022-12-31T03:50:40.418Z,87.73
2022-12-31T03:55:39.944Z,87.55
2022-12-31T04:00:39.136Z,87.32
2022-12-31T04:05:39.022Z,87.05
2022-12-31T04:10:37.612Z,86.85
2022-12-31T04:15:36.907Z,86.61
2022-12-31T04:20:35.738Z,86.45
2022-12-31T04:25:35.146Z,85.86
2022-12-31T04:30:34.828Z,85.46
2022-12-31T04:35:33.382Z,85.35
2022-12-31T04:40:32.211Z,84.92
2022-12-31T04:45:31.769Z,84.66
2022-12-31T04:50:32.172Z,84.00
2022-12-31T04:55:34.640Z,83.55
2022-12-31T05:00:34.929Z,83.35
2022-12-31T05:05:34.006Z,83.12
2022-12-31T05:10:33.728Z,83.10
2022-12-31T05:15:32.900Z,82.90
2022-12-31T05:20:32.327Z,82.84
2022-12-31T05:25:32.232Z,82.80
2022-12-31T05:30:31.890Z,82.66
2022-12-31T05:35:32.887Z,82.44
2022-12-31T05:40:33.056Z,82.28
2022-12-31T05:45:32.650Z,82.16
2022-12-31T05:50:32.908Z,82.06
2022-12-31T05:55:34.163Z,81.91
2022-12-31T06:00:33.629Z,81.85
2022-12-31T06:05:33.450Z,81.83
2022-12-31T06:10:33.201Z,81.84
2022-12-31T06:15:33.264Z,81.83
2022-12-31T06:20:32.764Z,81.80
2022-12-31T06:25:32.519Z,81.88
2022-12-31T06:30:31.993Z,81.95
2022-12-31T06:35:30.819Z,82.06
2022-12-31T06:40:30.451Z,82.15
2022-12-31T06:45:29.930Z,82.23
2022-12-31T06:50:29.064Z,82.29
2022-12-31T06:55:33.727Z,82.41
2022-12-31T07:00:37.191Z,82.51
2022-12-31T07:05:52.331Z,82.44
2022-12-31T07:11:01.456Z,82.45
2022-12-31T07:16:23.313Z,82.43
2022-12-31T07:21:31.848Z,82.37
2022-12-31T07:26:56.396Z,82.32
2022-12-31T07:32:12.827Z,82.27
2022-12-31T07:37:27.256Z,82.24
2022-12-31T07:42:38.363Z,82.25
2022-12-31T07:47:39.473Z,82.20
2022-12-31T07:52:40.115Z,82.18
2022-12-31T07:57:49.679Z,82.12
2022-12-31T08:03:18.578Z,82.07
2022-12-31T08:08:34.114Z,82.06
2022-12-31T08:13:35.357Z,82.02
2022-12-31T08:18:36.296Z,81.94
2022-12-31T08:23:42.910Z,81.87
2022-12-31T08:29:03.524Z,81.78
2022-12-31T08:34:27.601Z,81.63
2022-12-31T08:39:43.759Z,81.55
2022-12-31T08:45:00.141Z,81.45
2022-12-31T08:50:01.673Z,81.31
2022-12-31T08:55:03.366Z,81.10
2022-12-31T09:00:14.636Z,80.99
2022-12-31T09:05:26.320Z,80.69
2022-12-31T09:10:37.151Z,80.14
2022-12-31T09:15:50.355Z,79.72
2022-12-31T09:20:51.420Z,79.47
2022-12-31T09:26:14.793Z,79.30
2022-12-31T09:31:24.710Z,79.26
2022-12-31T09:36:32.485Z,79.08
2022-12-31T09:42:13.680Z,78.96
2022-12-31T09:48:18.232Z,78.90
2022-12-31T09:53:50.787Z,78.33
2022-12-31T09:59:07.043Z,77.73
2022-12-31T10:04:44.868Z,77.40
2022-12-31T10:10:02.479Z,77.41
2022-12-31T10:15:31.703Z,77.13
2022-12-31T10:20:47.986Z,76.66
2022-12-31T10:26:22.982Z,75.89
2022-12-31T10:31:49.851Z,75.55
2022-12-31T10:37:17.026Z,75.21
2022-12-31T10:43:18.864Z,74.85
2022-12-31T10:49:35.681Z,74.24
2022-12-31T10:55:27.740Z,73.07
2022-12-31T11:00:31.317Z,72.26
2022-12-31T11:06:16.351Z,72.53
2022-12-31T11:11:31.543Z,72.93
2022-12-31T11:16:54.027Z,72.96
2022-12-31T11:22:22.722Z,72.73
2022-12-31T11:27:49.888Z,72.68
2022-12-31T11:33:16.552Z,72.38
2022-12-31T11:38:27.353Z,72.42
2022-12-31T11:43:39.134Z,72.58
2022-12-31T11:48:48.396Z,72.93
2022-12-31T11:54:26.898Z,73.02
2022-12-31T11:59:26.997Z,73.18
2022-12-31T12:04:28.426Z,73.24
2022-12-31T12:09:36.049Z,73.23
2022-12-31T12:14:55.684Z,73.40
2022-12-31T12:20:02.162Z,73.35
2022-12-31T12:25:08.055Z,73.48
2022-12-31T12:30:27.420Z,73.40
2022-12-31T12:35:33.456Z,73.42
2022-12-31T12:40:36.365Z,73.54
2022-12-31T12:45:51.767Z,74.59
2022-12-31T12:50:53.184Z,76.53
2022-12-31T12:56:06.122Z,76.98
2022-12-31T13:01:18.567Z,77.49
2022-12-31T13:06:41.046Z,77.77
2022-12-31T13:11:53.151Z,78.16
2022-12-31T13:17:09.380Z,78.63
2022-12-31T13:22:21.505Z,78.84
2022-12-31T13:27:29.512Z,78.87
2022-12-31T13:32:40.232Z,79.22
2022-12-31T13:37:44.385Z,79.30
2022-12-31T13:42:55.024Z,79.36
2022-12-31T13:48:02.112Z,79.21
2022-12-31T13:53:15.624Z,79.07
2022-12-31T13:58:31.967Z,78.92
2022-12-31T14:03:46.753Z,78.71
2022-12-31T14:08:46.792Z,78.54
2022-12-31T14:14:02.852Z,78.34
2022-12-31T14:19:16.217Z,78.16
2022-12-31T14:24:29.158Z,78.02
2022-12-31T14:29:42.253Z,77.83
2022-12-31T14:34:53.784Z,77.68
2022-12-31T14:40:11.430Z,77.59
2022-12-31T14:45:29.554Z,77.44
2022-12-31T14:50:34.100Z,77.34
2022-12-31T14:55:37.225Z,77.20
2022-12-31T15:00:53.415Z,77.11
2022-12-31T15:06:01.818Z,76.79
2022-12-31T15:11:30.029Z,76.63
2022-12-31T15:16:46.504Z,76.36
2022-12-31T15:22:06.447Z,76.25
2022-12-31T15:27:20.507Z,76.07
2022-12-31T15:32:26.488Z,75.95
2022-12-31T15:37:37.297Z,75.93
2022-12-31T15:42:51.159Z,75.76
2022-12-31T15:47:57.847Z,75.54
2022-12-31T15:52:59.765Z,75.33
2022-12-31T15:58:05.378Z,75.17
2022-12-31T16:03:04.502Z,75.03
2022-12-31T16:08:06.098Z,74.92
2022-12-31T16:13:06.396Z,74.90
2022-12-31T16:18:15.773Z,74.75
2022-12-31T16:23:27.740Z,74.68
2022-12-31T16:28:32.768Z,74.54
2022-12-31T16:33:34.076Z,74.33
2022-12-31T16:38:41.119Z,74.22
2022-12-31T16:43:44.825Z,74.13
2022-12-31T16:48:52.329Z,74.12
2022-12-31T16:53:53.476Z,74.22
2022-12-31T16:58:58.901Z,74.33
2022-12-31T17:04:06.139Z,74.38
2022-12-31T17:09:20.876Z,74.43
2022-12-31T17:14:24.855Z,74.45
2022-12-31T17:19:40.094Z,74.48
2022-12-31T17:24:42.263Z,74.62
2022-12-31T17:29:42.119Z,74.76
2022-12-31T17:34:52.675Z,74.86
2022-12-31T17:40:49.989Z,74.89
2022-12-31T17:45:25.344Z,74.91
2022-12-31T17:50:29.740Z,74.71
2022-12-31T17:55:30.772Z,74.56
2022-12-31T18:00:33.417Z,74.23
2022-12-31T18:05:33.510Z,74.08
2022-12-31T18:10:38.286Z,73.96
2022-12-31T18:15:36.845Z,73.98
2022-12-31T18:20:36.275Z,73.91
2022-12-31T18:30:34.116Z,73.85
2022-12-31T18:36:07.228Z,73.86
2022-12-31T18:40:59.768Z,73.83
2022-12-31T18:46:02.381Z,73.84
2022-12-31T18:51:03.778Z,73.79
2022-12-31T18:56:03.345Z,73.79
2022-12-31T19:01:02.676Z,73.76
2022-12-31T19:06:02.156Z,73.74
2022-12-31T19:11:02.767Z,73.62
2022-12-31T19:16:04.082Z,73.58
2022-12-31T19:21:05.091Z,73.46
2022-12-31T19:26:04.407Z,73.33
2022-12-31T19:31:08.041Z,73.17
2022-12-31T19:36:15.112Z,73.09
2022-12-31T19:41:21.181Z,73.12
2022-12-31T19:46:21.697Z,73.17
2022-12-31T19:51:23.564Z,73.25
2022-12-31T19:56:24.884Z,73.36
2022-12-31T20:01:28.710Z,73.40
2022-12-31T20:06:31.258Z,73.48
2022-12-31T20:11:31.512Z,73.47
2022-12-31T20:16:32.015Z,73.46
2022-12-31T20:21:35.748Z,73.41
2022-12-31T20:26:35.108Z,73.33
2022-12-31T20:31:34.651Z,73.29
2022-12-31T20:36:33.883Z,73.29
2022-12-31T20:41:33.547Z,73.23
2022-12-31T20:46:36.826Z,73.11
2022-12-31T20:51:38.117Z,73.04
2022-12-31T20:56:40.868Z,72.99
2022-12-31T21:02:19.314Z,72.96
2022-12-31T21:07:00.586Z,72.93
2022-12-31T21:12:17.165Z,72.90
2022-12-31T21:17:16.666Z,72.83
2022-12-31T21:22:16.161Z,72.87
2022-12-31T21:27:18.492Z,72.82
2022-12-31T21:32:18.197Z,72.90
2022-12-31T21:37:17.561Z,72.94
2022-12-31T21:42:18.296Z,73.00
2022-12-31T21:47:39.480Z,73.05
2022-12-31T21:52:42.356Z,73.07
2022-12-31T21:58:15.629Z,73.06
2022-12-31T22:03:20.108Z,72.99
2022-12-31T22:08:19.865Z,72.94
2022-12-31T22:13:20.095Z,72.97
2022-12-31T22:18:20.558Z,73.03
2022-12-31T22:23:20.538Z,73.11
2022-12-31T22:33:39.309Z,73.19
2022-12-31T22:38:39.273Z,73.24
2022-12-31T22:43:41.775Z,73.28
2022-12-31T22:48:42.928Z,73.23
2022-12-31T22:53:44.787Z,73.09
2022-12-31T22:58:45.602Z,73.03
2022-12-31T23:03:46.680Z,72.98
2022-12-31T23:09:07.247Z,73.01
2022-12-31T23:14:30.133Z,72.95
2022-12-31T23:19:47.524Z,72.93
2022-12-31T23:24:47.156Z,72.82
2022-12-31T23:29:47.692Z,72.65
2022-12-31T23:34:48.245Z,72.54
2022-12-31T23:39:47.890Z,72.45
2022-12-31T23:44:49.663Z,72.52
2022-12-31T23:49:49.419Z,72.50
2022-12-31T23:54:48.877Z,72.46
2022-12-31T23:59:49.403Z,72.43
